Time;durP1;ratioP1;P1;durP2;ratioP2;P2;SDS_P1;SDS_P2;PMS_P1;PMS_P2;Temp;Humidity;BMP_temperature;BMP_pressure;BME280_temperature;BME280_humidity;BME280_pressure;Samples;Min_cycle;Max_cycle;Signal;HPM_P1;HPM_P2
2023/09/05 00:01:47;;;;;;;9.63;2.40;;;;;;;21.89;74.91;100001.66;10541587;28;20048;-69
2023/09/05 00:06:48;;;;;;;6.93;2.47;;;;;;;21.71;74.82;99976.81;10541742;28;20056;-69
2023/09/05 00:11:50;;;;;;;5.15;1.90;;;;;;;21.63;74.79;99967.28;10541627;28;20701;-69
2023/09/05 00:16:51;;;;;;;4.05;2.00;;;;;;;21.88;74.70;100000.03;10542217;28;20036;-69
2023/09/05 00:21:51;;;;;;;4.93;2.15;;;;;;;21.94;74.84;100016.34;10541776;28;20048;-69
2023/09/05 00:26:52;;;;;;;6.50;2.05;;;;;;;21.92;74.90;100013.06;10541042;28;20483;-69
2023/09/05 00:31:59;;;;;;;7.22;1.98;;;;;;;21.65;75.26;99971.34;10540986;28;20123;-69
2023/09/05 00:37:01;;;;;;;4.57;1.90;;;;;;;21.80;75.31;99997.75;10540684;28;20048;-69
2023/09/05 00:42:05;;;;;;;9.77;1.80;;;;;;;21.74;75.48;99985.22;10540537;28;20465;-71
2023/09/05 00:47:06;;;;;;;4.85;1.70;;;;;;;21.48;75.84;99946.25;10541880;28;20036;-69
2023/09/05 00:52:10;;;;;;;6.70;1.70;;;;;;;21.70;75.88;99994.13;10540655;28;20419;-69
2023/09/05 00:57:17;;;;;;;8.70;1.67;;;;;;;21.44;76.06;99955.91;10539384;28;20040;-69
2023/09/05 01:02:18;;;;;;;6.57;1.80;;;;;;;21.67;76.34;100006.25;10540278;28;20048;-69
2023/09/05 01:07:37;;;;;;;8.27;1.85;;;;;;;21.65;77.77;100005.66;10539712;28;20060;-70
2023/09/05 01:12:38;;;;;;;3.25;1.40;;;;;;;21.61;76.57;100004.53;10539897;28;20066;-70
2023/09/05 01:17:39;;;;;;;6.85;1.88;;;;;;;21.53;76.93;99994.13;10539445;28;20040;-69
2023/09/05 01:23:03;;;;;;;11.98;1.92;;;;;;;21.60;78.50;100002.91;10539952;28;20040;-69
2023/09/05 01:28:05;;;;;;;5.30;1.90;;;;;;;21.51;77.63;100007.91;10539433;28;20035;-69
2023/09/05 01:33:06;;;;;;;8.75;2.10;;;;;;;21.45;77.83;100003.50;10539017;28;20490;-69
2023/09/05 01:38:07;;;;;;;10.25;2.05;;;;;;;21.51;78.16;100016.03;10538831;28;20123;-69
2023/09/05 01:43:07;;;;;;;2.85;1.60;;;;;;;21.54;78.20;100018.22;10520126;28;20093;-70
2023/09/05 01:48:08;;;;;;;4.22;1.83;;;;;;;21.37;78.53;99982.31;10538791;28;20043;-69
2023/09/05 01:53:09;;;;;;;6.72;1.85;;;;;;;21.58;78.76;100013.13;10538501;28;20503;-69
2023/09/05 01:58:10;;;;;;;10.40;2.38;;;;;;;21.59;78.86;100023.69;10537755;28;20485;-69
2023/09/05 02:03:10;;;;;;;3.47;1.80;;;;;;;21.57;79.11;100023.13;10537991;28;20039;-69
2023/09/05 02:08:11;;;;;;;5.28;1.80;;;;;;;21.50;79.35;100013.56;10537384;28;20040;-72
2023/09/05 02:13:13;;;;;;;9.30;2.25;;;;;;;21.59;79.47;100025.56;10537384;28;20496;-72
2023/09/05 02:18:13;;;;;;;6.65;1.80;;;;;;;21.67;79.31;100027.88;10537344;28;20071;-72
2023/09/05 02:23:14;;;;;;;12.20;2.33;;;;;;;21.34;79.59;99978.19;10537705;28;20036;-72
2023/09/05 02:28:15;;;;;;;9.15;2.53;;;;;;;21.73;79.62;100053.91;10537007;28;20067;-72
2023/09/05 02:33:16;;;;;;;7.20;2.15;;;;;;;21.64;79.86;100040.00;10537292;28;20036;-71
2023/09/05 02:38:17;;;;;;;17.10;2.67;;;;;;;21.58;80.05;100051.78;10536652;28;20553;-72
2023/09/05 02:43:18;;;;;;;10.70;2.58;;;;;;;21.63;79.91;100048.38;10536460;28;20044;-72
2023/09/05 02:48:18;;;;;;;11.07;2.50;;;;;;;21.52;79.71;100014.13;10535430;28;20048;-73
2023/09/05 02:53:19;;;;;;;6.07;2.65;;;;;;;21.54;80.05;100023.63;10518915;28;20040;-71
2023/09/05 02:58:20;;;;;;;6.93;2.83;;;;;;;21.84;80.12;100073.81;10536924;28;20036;-71
2023/09/05 03:03:20;;;;;;;27.45;9.13;;;;;;;21.97;79.98;100073.44;10535172;28;20060;-71
2023/09/05 03:08:21;;;;;;;30.10;12.73;;;;;;;22.01;79.55;100057.53;10535873;28;20071;-71
2023/09/05 03:13:22;;;;;;;73.15;40.83;;;;;;;22.09;79.46;100055.19;10536758;28;20058;-71
2023/09/05 03:18:25;;;;;;;96.25;48.53;;;;;;;21.99;78.85;100025.31;10535771;28;20044;-71
2023/09/05 03:23:25;;;;;;;75.10;35.17;;;;;;;22.26;78.85;100057.88;10535799;28;20055;-71
2023/09/05 03:28:47;;;;;;;85.47;42.05;;;;;;;22.50;78.51;100054.91;10538661;28;20039;-72
2023/09/05 03:33:48;;;;;;;136.68;80.63;;;;;;;22.64;77.22;100061.53;10543829;28;20036;-71
2023/09/05 03:38:49;;;;;;;61.38;21.52;;;;;;;22.70;76.60;100033.44;10543186;28;20582;-72
2023/09/05 03:43:49;;;;;;;35.03;12.23;;;;;;;22.70;76.21;100025.31;10575024;28;20050;-71
2023/09/05 03:48:52;;;;;;;26.85;7.97;;;;;;;22.76;76.26;100056.81;10585924;28;20046;-71
2023/09/05 03:53:54;;;;;;;30.23;6.30;;;;;;;22.75;76.09;100065.19;10585127;28;20547;-72
2023/09/05 03:58:55;;;;;;;27.73;5.40;;;;;;;22.78;75.79;100067.38;10582690;28;20078;-72
2023/09/05 04:03:56;;;;;;;21.00;6.20;;;;;;;22.64;75.67;100025.53;10584881;28;20055;-71
2023/09/05 04:08:57;;;;;;;14.65;5.10;;;;;;;22.93;75.96;100089.22;10584443;28;20040;-71
2023/09/05 04:13:57;;;;;;;20.20;5.93;;;;;;;22.85;75.91;100061.75;10571981;28;20465;-71
2023/09/05 04:18:58;;;;;;;18.02;6.22;;;;;;;22.61;75.92;100010.63;10541526;28;20039;-72
2023/09/05 04:23:59;;;;;;;16.80;5.70;;;;;;;22.64;76.55;100017.41;10542152;28;20031;-71
2023/09/05 04:29:00;;;;;;;17.70;6.18;;;;;;;22.91;76.11;100083.22;10541588;28;20071;-71
2023/09/05 04:34:01;;;;;;;40.10;5.80;;;;;;;22.87;76.35;100076.69;10541439;28;20036;-71
2023/09/05 04:39:03;;;;;;;23.33;5.68;;;;;;;22.74;76.68;100055.44;10539241;28;20047;-71
2023/09/05 04:44:03;;;;;;;16.90;6.40;;;;;;;22.73;76.88;100060.00;10540810;28;20043;-70
2023/09/05 04:49:04;;;;;;;16.63;6.15;;;;;;;22.48;77.44;99982.06;10540618;28;20040;-70
2023/09/05 04:54:05;;;;;;;19.90;6.85;;;;;;;22.65;77.19;99990.09;10540569;28;20044;-69
2023/09/05 04:59:06;;;;;;;61.15;8.63;;;;;;;22.33;77.84;99988.16;10538617;28;20499;-69
2023/09/05 05:04:07;;;;;;;18.02;6.55;;;;;;;22.53;78.46;100024.63;10539695;28;20101;-70
2023/09/05 05:09:07;;;;;;;13.02;5.25;;;;;;;22.50;79.31;100044.09;10540474;28;20052;-69
2023/09/05 05:14:08;;;;;;;18.00;7.70;;;;;;;22.81;79.43;100095.84;10539695;28;20055;-69
2023/09/05 05:19:12;;;;;;;12.85;5.47;;;;;;;22.69;80.86;100079.75;10539280;28;20734;-68
2023/09/05 05:24:13;;;;;;;35.05;11.35;;;;;;;22.41;79.40;100045.63;10520765;28;20036;-69
2023/09/05 05:29:14;;;;;;;29.23;13.20;;;;;;;22.62;79.18;100095.38;10539991;28;20548;-68
2023/09/05 05:34:15;;;;;;;168.13;92.20;;;;;;;22.61;79.73;100110.78;10538850;28;20111;-68
2023/09/05 05:39:21;;;;;;;74.70;43.17;;;;;;;22.66;79.87;100124.41;10538214;28;20036;-69
2023/09/05 05:44:22;;;;;;;56.67;18.95;;;;;;;22.63;79.39;100110.53;10538133;28;20234;-68
2023/09/05 05:49:23;;;;;;;89.18;42.03;;;;;;;22.54;79.25;100108.28;10538494;28;20126;-69
2023/09/05 05:54:25;;;;;;;219.57;91.50;;;;;;;22.77;78.43;100141.59;10538398;28;20050;-68
2023/09/05 05:59:26;;;;;;;45.08;19.65;;;;;;;22.83;77.99;100131.63;10537385;28;20047;-68
2023/09/05 06:04:26;;;;;;;31.80;14.10;;;;;;;22.62;77.32;100106.22;10538032;28;20044;-68
2023/09/05 06:09:28;;;;;;;33.47;14.82;;;;;;;22.62;76.59;100115.16;10537558;28;20039;-68
2023/09/05 06:14:28;;;;;;;27.50;13.68;;;;;;;22.68;76.07;100124.16;10537586;28;20128;-68
2023/09/05 06:19:29;;;;;;;39.42;14.93;;;;;;;22.45;76.39;100062.97;10536823;28;20040;-68
2023/09/05 06:24:30;;;;;;;69.78;16.70;;;;;;;22.57;76.27;100082.59;10537051;28;20109;-68
2023/09/05 06:29:30;;;;;;;22.65;13.20;;;;;;;22.84;75.50;100100.75;10518921;28;20040;-68
2023/09/05 06:34:32;;;;;;;36.15;14.88;;;;;;;23.03;75.06;100104.75;10537814;28;20043;-68
2023/09/05 06:39:34;;;;;;;25.42;13.98;;;;;;;23.42;74.24;100118.97;10537122;28;20088;-68
2023/09/05 06:44:35;;;;;;;42.38;13.55;;;;;;;23.64;73.59;100112.63;10537818;28;20040;-68
2023/09/05 06:49:35;;;;;;;30.80;13.00;;;;;;;23.64;73.91;100089.03;10537198;28;20044;-68
2023/09/05 06:54:36;;;;;;;25.35;11.55;;;;;;;23.93;73.29;100113.09;10519116;28;20376;-70
2023/09/05 06:59:37;;;;;;;45.03;13.70;;;;;;;24.00;73.53;100088.47;10536955;28;20127;-69
2023/09/05 07:04:37;;;;;;;63.17;13.48;;;;;;;24.43;73.09;100100.09;10540875;28;20159;-69
2023/09/05 07:09:38;;;;;;;29.60;12.10;;;;;;;24.50;72.06;100076.22;10544225;28;20564;-69
2023/09/05 07:14:39;;;;;;;33.17;10.55;;;;;;;24.62;71.79;100095.81;10525843;28;20040;-70
2023/09/05 07:19:39;;;;;;;33.15;10.45;;;;;;;24.43;71.14;100057.47;10544380;28;20032;-69
2023/09/05 07:24:40;;;;;;;33.78;11.52;;;;;;;24.80;71.24;100108.91;10543612;28;20093;-69
2023/09/05 07:29:41;;;;;;;26.90;11.07;;;;;;;24.75;71.08;100095.31;10543336;28;20040;-69
2023/09/05 07:34:42;;;;;;;25.08;10.95;;;;;;;24.66;69.80;100055.38;10543973;28;20093;-69
2023/09/05 07:39:49;;;;;;;24.70;11.60;;;;;;;25.06;68.95;100043.72;10543864;28;20544;-69
2023/09/05 07:44:51;;;;;;;17.77;10.00;;;;;;;26.09;67.80;100107.03;10543395;28;20044;-69
2023/09/05 07:49:52;;;;;;;49.78;14.32;;;;;;;26.32;66.49;100100.94;10543297;28;20039;-69
2023/09/05 07:54:52;;;;;;;65.25;14.68;;;;;;;26.22;66.55;100109.16;10543056;28;20067;-69
2023/09/05 07:59:53;;;;;;;29.52;15.40;;;;;;;26.30;67.09;100116.78;10543312;28;20040;-70
2023/09/05 08:04:54;;;;;;;29.55;16.27;;;;;;;26.52;66.94;100113.72;10542995;28;20063;-69
2023/09/05 08:09:55;;;;;;;29.35;9.48;;;;;;;26.76;65.87;100108.41;10543113;28;20044;-69
2023/09/05 08:14:56;;;;;;;17.13;7.88;;;;;;;26.83;65.86;100083.56;10541514;28;20703;-69
2023/09/05 08:19:57;;;;;;;37.65;7.75;;;;;;;27.12;64.78;100089.09;10541535;28;20066;-68
2023/09/05 08:24:59;;;;;;;32.47;9.15;;;;;;;27.36;63.89;100086.47;10542392;28;20055;-69
2023/09/05 08:29:59;;;;;;;20.77;7.68;;;;;;;27.37;62.88;100043.63;10541778;28;20039;-68
2023/09/05 08:35:00;;;;;;;15.32;9.38;;;;;;;27.94;61.48;100056.47;10540862;28;20040;-68
2023/09/05 08:40:01;;;;;;;23.27;7.63;;;;;;;28.22;60.72;100057.47;10540611;28;20040;-69
2023/09/05 08:45:04;;;;;;;15.25;7.70;;;;;;;28.56;60.67;100089.31;10540769;28;20094;-69
2023/09/05 08:50:07;;;;;;;21.17;8.07;;;;;;;28.28;60.55;100060.16;10540094;28;20495;-69
2023/09/05 08:55:08;;;;;;;;;;;;;;;28.96;58.34;100099.94;10540583;28;20044;-69
2023/09/05 09:00:09;;;;;;;18.23;6.78;;;;;;;28.72;59.74;100061.75;10540404;28;19916;-69
2023/09/05 09:05:10;;;;;;;17.83;6.43;;;;;;;28.14;59.38;99973.47;10539324;28;20443;-69
2023/09/05 09:10:21;;;;;;;25.25;7.32;;;;;;;27.93;59.64;99966.66;10540429;28;20040;-68
2023/09/05 09:15:26;;;;;;;29.50;7.20;;;;;;;28.64;59.06;100038.66;10521139;28;20119;-69
2023/09/05 09:20:28;;;;;;;15.95;5.90;;;;;;;28.98;58.33;100035.66;10521420;28;20040;-69
2023/09/05 09:25:30;;;;;;;24.58;6.03;;;;;;;28.74;58.09;99978.34;10520411;28;20072;-69
2023/09/05 09:30:30;;;;;;;13.73;6.18;;;;;;;29.06;57.01;99972.09;10539239;28;20483;-67
2023/09/05 09:35:31;;;;;;;19.50;5.60;;;;;;;29.83;56.43;100013.69;10539388;28;20043;-67
2023/09/05 09:40:38;;;;;;;12.38;5.32;;;;;;;30.08;54.98;100013.16;10538789;28;20495;-67
2023/09/05 09:45:39;;;;;;;16.75;5.50;;;;;;;30.45;54.89;99997.56;10538859;28;20040;-69
2023/09/05 09:50:41;;;;;;;16.98;5.22;;;;;;;30.60;54.31;99977.22;10538047;28;20040;-70
2023/09/05 09:55:43;;;;;;;25.38;5.40;;;;;;;30.77;53.54;99973.81;10537861;28;20084;-70
2023/09/05 10:00:45;;;;;;;16.15;4.95;;;;;;;30.83;53.98;99967.09;10538705;28;20119;-70
2023/09/05 10:05:46;;;;;;;22.30;5.30;;;;;;;30.94;54.07;99952.00;10538447;28;20134;-69
2023/09/05 10:10:48;;;;;;;13.43;4.13;;;;;;;31.33;53.05;99964.16;10537384;28;20139;-69
2023/09/05 10:15:51;;;;;;;21.92;4.50;;;;;;;31.13;52.18;99900.47;10538056;28;20040;-69
2023/09/05 10:20:54;;;;;;;13.68;4.03;;;;;;;31.45;51.94;99938.91;10537500;28;20047;-69
2023/09/05 10:25:57;;;;;;;28.70;4.50;;;;;;;31.45;51.07;99944.38;10537910;28;20067;-69
2023/09/05 10:31:06;;;;;;;11.98;4.10;;;;;;;31.71;50.70;99939.78;10536927;28;20044;-69
2023/09/05 10:36:42;;;;;;;33.05;4.65;;;;;;;31.90;50.10;99941.47;10537305;28;20391;-69
2023/09/05 10:41:43;;;;;;;23.00;4.28;;;;;;;31.98;49.54;99910.44;10546191;28;20043;-69
2023/09/05 10:46:43;;;;;;;23.35;3.88;;;;;;;32.21;49.52;99911.91;10545825;28;20040;-69
2023/09/05 10:52:23;;;;;;;13.63;3.55;;;;;;;32.80;49.07;99932.59;10544981;28;20431;-69
2023/09/05 10:57:42;;;;;;;18.70;4.65;;;;;;;32.63;48.02;99914.16;10334565;28;20111;-69
2023/09/05 11:02:44;;;;;;;24.63;4.07;;;;;;;32.40;47.55;99919.84;10509725;28;20150;-69
2023/09/05 11:07:46;;;;;;;18.10;3.67;;;;;;;32.56;47.70;99906.41;10544255;28;20519;-69
2023/09/05 11:12:47;;;;;;;13.47;3.97;;;;;;;32.51;47.91;99890.09;10545478;28;20238;-69
2023/09/05 11:18:05;;;;;;;16.48;3.70;;;;;;;32.64;47.01;99921.31;10545226;28;20548;-70
2023/09/05 11:23:20;;;;;;;19.73;3.83;;;;;;;32.40;47.85;99850.28;10543908;28;20125;-70
2023/09/05 11:28:23;;;;;;;9.60;3.50;;;;;;;32.59;47.32;99882.97;10544421;28;20099;-70
2023/09/05 11:33:26;;;;;;;18.95;3.60;;;;;;;32.56;46.33;99873.44;10526310;28;20376;-69
2023/09/05 11:38:28;;;;;;;11.93;3.75;;;;;;;32.61;45.90;99862.25;10543934;28;20035;-69
2023/09/05 11:43:33;;;;;;;18.00;4.07;;;;;;;32.74;45.73;99864.00;10543064;28;20055;-69
2023/09/05 11:48:34;;;;;;;27.52;4.05;;;;;;;32.85;46.14;99885.66;10542964;28;20043;-69
2023/09/05 11:53:37;;;;;;;20.48;4.43;;;;;;;32.88;45.71;99891.31;10543809;28;20043;-70
2023/09/05 11:58:38;;;;;;;11.00;3.90;;;;;;;32.77;45.23;99867.22;10543797;28;20129;-69
2023/09/05 12:03:41;;;;;;;15.73;4.15;;;;;;;32.61;44.87;99831.19;10542670;28;20129;-70
2023/09/05 12:08:42;;;;;;;15.73;3.88;;;;;;;32.97;43.89;99881.06;10542194;28;20040;-70
2023/09/05 12:13:44;;;;;;;15.93;3.95;;;;;;;33.00;43.90;99870.56;10539766;28;20051;-70
2023/09/05 12:18:44;;;;;;;17.40;3.73;;;;;;;33.15;43.67;99870.84;10542096;28;20040;-69
2023/09/05 12:23:45;;;;;;;18.30;4.22;;;;;;;33.17;43.45;99874.03;10540453;28;20104;-70
2023/09/05 12:28:53;;;;;;;22.13;4.45;;;;;;;33.10;44.13;99861.97;10541204;28;20047;-70
2023/09/05 12:33:55;;;;;;;25.58;4.40;;;;;;;32.83;44.05;99858.47;10535759;28;20032;-69
2023/09/05 12:38:56;;;;;;;19.73;4.35;;;;;;;32.86;43.77;99865.25;10530603;28;20071;-70
2023/09/05 12:43:58;;;;;;;13.38;3.90;;;;;;;32.68;43.67;99843.31;10539131;28;20043;-70
2023/09/05 12:48:59;;;;;;;15.15;4.05;;;;;;;32.94;42.82;99861.69;10523446;28;20040;-70
2023/09/05 12:54:00;;;;;;;13.43;3.78;;;;;;;32.94;43.62;99865.22;10518129;28;20036;-70
2023/09/05 12:59:01;;;;;;;15.40;4.20;;;;;;;32.87;43.81;99850.34;10520041;28;20037;-70
2023/09/05 13:04:03;;;;;;;14.77;3.60;;;;;;;32.92;43.01;99864.75;10499938;28;20047;-72
2023/09/05 13:09:04;;;;;;;28.17;5.47;;;;;;;32.81;43.09;99857.19;10518862;28;20033;-70
2023/09/05 13:14:05;;;;;;;14.48;4.13;;;;;;;32.76;42.67;99849.94;10527138;28;20419;-70
2023/09/05 13:19:05;;;;;;;18.60;3.75;;;;;;;32.81;43.67;99862.69;10536450;28;20530;-70
2023/09/05 13:24:06;;;;;;;17.45;4.15;;;;;;;32.55;43.54;99833.31;10537750;28;20047;-70
2023/09/05 13:29:07;;;;;;;21.35;4.50;;;;;;;32.71;43.11;99856.41;10535509;28;20134;-69
2023/09/05 13:34:08;;;;;;;19.52;4.43;;;;;;;32.38;42.39;99797.59;10521387;28;20550;-69
2023/09/05 13:39:09;;;;;;;13.65;4.10;;;;;;;32.77;42.54;99856.22;10537515;28;20070;-69
2023/09/05 13:44:10;;;;;;;28.55;5.78;;;;;;;32.73;42.96;99859.63;10539164;28;20483;-70
2023/09/05 13:49:10;;;;;;;43.30;5.32;;;;;;;32.36;44.22;99857.56;10539276;28;20142;-70
2023/09/05 13:54:11;;;;;;;21.15;4.43;;;;;;;32.05;43.30;99853.09;10537990;28;20402;-71
2023/09/05 13:59:13;;;;;;;38.60;5.18;;;;;;;31.55;43.99;99812.31;10537561;28;20035;-70
2023/09/05 14:04:14;;;;;;;164.98;12.38;;;;;;;31.72;43.70;99859.00;10537615;28;20067;-70
2023/09/05 14:09:16;;;;;;;140.38;11.77;;;;;;;31.53;45.20;99867.56;10537842;28;20114;-68
2023/09/05 14:14:16;;;;;;;33.83;4.90;;;;;;;31.00;45.26;99807.31;10537756;28;20043;-69
2023/09/05 14:19:17;;;;;;;20.30;4.47;;;;;;;31.31;44.38;99868.41;10537203;28;20042;-69
2023/09/05 14:24:18;;;;;;;20.40;4.43;;;;;;;31.09;44.71;99843.81;10537502;28;20491;-68
2023/09/05 14:29:19;;;;;;;39.25;6.20;;;;;;;30.83;44.53;99825.31;10538117;28;20067;-69
2023/09/05 14:34:19;;;;;;;125.80;10.50;;;;;;;30.96;45.53;99861.19;10537385;28;20091;-68
2023/09/05 14:39:21;;;;;;;98.95;8.93;;;;;;;30.18;45.85;99782.81;10536885;28;20040;-69
2023/09/05 14:44:22;;;;;;;31.37;4.97;;;;;;;30.74;45.41;99875.72;10518872;28;20557;-69
2023/09/05 14:49:23;;;;;;;53.78;5.72;;;;;;;30.50;46.03;99871.38;10519318;28;20094;-69
2023/09/05 14:54:23;;;;;;;29.27;4.85;;;;;;;30.53;45.49;99878.19;10536790;28;20122;-69
2023/09/05 14:59:24;;;;;;;32.60;5.78;;;;;;;30.45;45.58;99888.78;10536481;28;20044;-69
2023/09/05 15:04:25;;;;;;;35.70;6.40;;;;;;;30.07;46.18;99843.66;10537404;28;20070;-69
2023/09/05 15:09:26;;;;;;;173.10;15.13;;;;;;;29.70;47.65;99840.09;10536528;28;20081;-69
2023/09/05 15:14:26;;;;;;;153.40;23.67;;;;;;;29.66;49.46;99886.44;10537509;28;20059;-69
2023/09/05 15:19:27;;;;;;;120.00;50.70;;;;;;;29.24;48.45;99857.47;10535909;28;20036;-68
2023/09/05 15:24:28;;;;;;;26.23;8.38;;;;;;;29.60;45.79;99906.78;10520824;28;20050;-69
2023/09/05 15:29:29;;;;;;;25.95;4.22;;;;;;;29.33;44.57;99858.38;10543630;28;20499;-70
2023/09/05 15:34:30;;;;;;;31.83;4.32;;;;;;;29.58;44.14;99900.81;10544391;28;20039;-69
2023/09/05 15:39:30;;;;;;;32.38;4.97;;;;;;;29.55;43.84;99901.41;10525058;28;20044;-69
2023/09/05 15:44:31;;;;;;;17.58;3.40;;;;;;;29.32;43.68;99881.38;10544164;28;20048;-69
2023/09/05 15:49:32;;;;;;;32.35;3.90;;;;;;;29.13;44.30;99863.13;10525047;28;20032;-75
2023/09/05 15:54:33;;;;;;;29.08;3.78;;;;;;;29.12;44.25;99891.59;10543087;28;20150;-78
2023/09/05 15:59:39;;;;;;;27.13;5.03;;;;;;;29.17;44.12;99928.16;10542566;28;20039;-76
2023/09/05 16:04:40;;;;;;;17.50;3.60;;;;;;;29.04;44.62;99927.84;10542721;28;20063;-77
2023/09/05 16:09:43;;;;;;;39.15;4.45;;;;;;;28.94;45.10;99944.41;10542015;28;20044;-77
2023/09/05 16:14:45;;;;;;;16.02;3.88;;;;;;;28.80;45.51;99935.34;10541774;28;20122;-76
2023/09/05 16:19:46;;;;;;;26.63;4.40;;;;;;;28.71;45.84;99934.41;10542514;28;20134;-77
2023/09/05 16:24:47;;;;;;;23.67;4.63;;;;;;;28.60;46.70;99952.91;10540896;28;20568;-76
2023/09/05 16:29:48;;;;;;;22.75;5.35;;;;;;;28.52;46.88;99948.91;10539454;28;20071;-76
2023/09/05 16:34:55;;;;;;;24.38;3.85;;;;;;;28.19;47.90;99910.59;10539049;28;20127;-76
2023/09/05 16:39:56;;;;;;;23.95;4.13;;;;;;;28.30;47.78;99944.03;10525982;28;20059;-76
2023/09/05 16:45:00;;;;;;;31.25;4.43;;;;;;;28.27;48.46;99947.38;10525410;28;20115;-77
2023/09/05 16:50:00;;;;;;;15.77;3.58;;;;;;;28.09;48.91;99950.88;10518909;28;20459;-77
2023/09/05 16:55:01;;;;;;;18.88;3.90;;;;;;;27.72;49.02;99906.03;10517688;28;20122;-78
2023/09/05 17:00:02;;;;;;;26.75;3.88;;;;;;;27.83;49.78;99942.22;10519405;28;20455;-78
2023/09/05 17:05:03;;;;;;;16.08;3.25;;;;;;;27.71;50.00;99940.69;10499638;28;20052;-79
2023/09/05 17:10:05;;;;;;;17.70;3.17;;;;;;;27.76;50.71;99964.38;10519799;28;20491;-78
2023/09/05 17:15:06;;;;;;;19.90;3.63;;;;;;;27.20;51.68;99897.63;10521884;28;20529;-75
2023/09/05 17:20:08;;;;;;;19.40;3.88;;;;;;;27.52;52.80;99950.72;10513725;28;20048;-77
2023/09/05 17:25:09;;;;;;;30.42;4.70;;;;;;;27.50;53.96;99963.88;10520640;28;20028;-77
2023/09/05 17:30:10;;;;;;;16.58;3.95;;;;;;;27.14;55.26;99917.84;10516741;28;20086;-77
2023/09/05 17:35:11;;;;;;;27.48;4.07;;;;;;;27.06;56.70;99922.00;10515245;28;20045;-77
2023/09/05 17:40:12;;;;;;;23.38;4.78;;;;;;;27.03;58.37;99914.41;10514569;28;20055;-77
2023/09/05 17:45:14;;;;;;;26.43;5.17;;;;;;;27.24;59.97;99963.31;10516217;28;20074;-78
2023/09/05 17:50:15;;;;;;;35.65;5.30;;;;;;;27.24;61.17;99969.56;10515198;28;20404;-77
2023/09/05 17:55:16;;;;;;;28.05;5.50;;;;;;;27.09;61.93;99953.34;10514030;28;20044;-76
2023/09/05 18:00:16;;;;;;;26.63;5.35;;;;;;;27.07;62.64;99963.72;10534795;28;20384;-77
2023/09/05 18:05:17;;;;;;;24.58;5.32;;;;;;;26.80;63.92;99929.63;10520086;28;20085;-78
2023/09/05 18:10:18;;;;;;;19.80;4.53;;;;;;;26.94;64.45;99967.91;10538081;28;20096;-79
2023/09/05 18:15:19;;;;;;;19.30;4.60;;;;;;;26.37;65.10;99888.53;10535095;28;20495;-77
2023/09/05 18:20:20;;;;;;;20.75;3.97;;;;;;;26.71;65.80;99946.84;10537671;28;20138;-76
2023/09/05 18:25:21;;;;;;;18.67;4.57;;;;;;;26.47;66.32;99919.50;10537787;28;20038;-76
2023/09/05 18:30:21;;;;;;;16.33;4.28;;;;;;;25.73;67.14;99811.34;10536710;28;20074;-76
2023/09/05 18:35:22;;;;;;;22.50;4.28;;;;;;;25.93;67.18;99861.31;10536656;28;20483;-75
2023/09/05 18:40:23;;;;;;;30.58;4.35;;;;;;;26.01;66.97;99898.03;10517293;28;20044;-77
2023/09/05 18:45:24;;;;;;;20.70;4.65;;;;;;;26.23;67.47;99944.69;10534154;28;20547;-76
2023/09/05 18:50:25;;;;;;;29.50;4.50;;;;;;;25.42;67.72;99837.88;10517782;28;20130;-76
2023/09/05 18:55:25;;;;;;;26.88;4.70;;;;;;;25.94;68.42;99939.97;10536824;28;20081;-76
2023/09/05 19:00:26;;;;;;;22.48;3.92;;;;;;;25.53;68.93;99884.91;10540001;28;20055;-76
2023/09/05 19:05:33;;;;;;;19.20;4.28;;;;;;;25.82;69.68;99935.97;10544941;28;20079;-76
2023/09/05 19:10:37;;;;;;;13.13;3.97;;;;;;;25.38;71.03;99883.06;10544375;28;20388;-77
2023/09/05 19:15:38;;;;;;;15.90;4.13;;;;;;;25.44;71.14;99909.13;10544127;28;20031;-76
2023/09/05 19:20:41;;;;;;;16.27;3.97;;;;;;;25.54;71.26;99950.97;10543457;28;20458;-78
2023/09/05 19:25:42;;;;;;;17.40;3.90;;;;;;;25.32;71.87;99927.66;10543887;28;20039;-77
2023/09/05 19:30:42;;;;;;;15.85;3.72;;;;;;;25.05;72.69;99900.78;10544001;28;20040;-78
2023/09/05 19:35:43;;;;;;;15.05;4.07;;;;;;;25.33;73.12;99953.75;10543752;28;20040;-75
2023/09/05 19:40:44;;;;;;;17.00;3.88;;;;;;;25.17;74.24;99930.41;10542710;28;20040;-76
2023/09/05 19:45:45;;;;;;;14.52;3.80;;;;;;;24.97;75.27;99918.44;10543340;28;20059;-75
2023/09/05 19:50:46;;;;;;;19.88;4.32;;;;;;;25.00;76.31;99942.34;10523351;28;20196;-76
2023/09/05 19:55:47;;;;;;;15.50;3.85;;;;;;;24.74;77.21;99903.53;10543103;28;20380;-75
2023/09/05 20:00:48;;;;;;;14.82;4.05;;;;;;;24.51;78.09;99885.88;10525228;28;20095;-76
2023/09/05 20:05:49;;;;;;;15.85;3.83;;;;;;;24.81;79.86;99941.28;10543138;28;20063;-76
2023/09/05 20:10:50;;;;;;;16.35;3.88;;;;;;;24.45;81.06;99907.88;10542516;28;20426;-76
2023/09/05 20:15:55;;;;;;;20.45;4.05;;;;;;;24.66;83.78;99957.59;10540754;28;20492;-78
2023/09/05 20:20:56;;;;;;;17.27;4.45;;;;;;;24.29;83.26;99907.00;10541570;28;20138;-77
2023/09/05 20:25:56;;;;;;;16.67;4.43;;;;;;;24.36;84.11;99937.44;10541822;28;20131;-76
2023/09/05 20:30:59;;;;;;;18.55;3.83;;;;;;;24.42;85.41;99952.66;10541897;28;20057;-75
2023/09/05 20:36:04;;;;;;;17.73;3.72;;;;;;;24.13;87.46;99914.31;10541066;28;20478;-77
2023/09/05 20:41:05;;;;;;;22.13;4.82;;;;;;;24.18;87.12;99927.88;10540756;28;20109;-76
2023/09/05 20:46:05;;;;;;;12.93;4.38;;;;;;;24.26;87.96;99956.38;10541596;28;20040;-78
2023/09/05 20:51:06;;;;;;;20.27;5.05;;;;;;;24.21;89.49;99943.63;10541122;28;20063;-76
2023/09/05 20:56:07;;;;;;;16.15;4.82;;;;;;;23.98;90.58;99931.34;10540829;28;20042;-77
2023/09/05 21:01:08;;;;;;;15.32;4.60;;;;;;;24.11;90.90;99952.56;10539825;28;20575;-77
2023/09/05 21:06:10;;;;;;;22.13;5.32;;;;;;;23.79;92.19;99912.03;10539625;28;20056;-76
2023/09/05 21:11:10;;;;;;;18.17;5.10;;;;;;;24.00;92.84;99967.19;10541146;28;20126;-76
2023/09/05 21:16:13;;;;;;;16.20;5.13;;;;;;;23.98;94.27;99976.66;10539408;28;20406;-77
2023/09/05 21:21:14;;;;;;;20.55;4.82;;;;;;;23.90;94.78;99956.28;10539484;28;20176;-76
2023/09/05 21:26:14;;;;;;;19.33;5.38;;;;;;;23.80;95.86;99948.13;10539031;28;20131;-77
2023/09/05 21:31:16;;;;;;;18.77;6.00;;;;;;;23.80;96.35;99962.47;10539246;28;20515;-76
2023/09/05 21:36:17;;;;;;;14.30;4.75;;;;;;;23.69;96.77;99947.22;10539284;28;20442;-77
2023/09/05 21:41:17;;;;;;;16.92;4.93;;;;;;;23.73;97.61;99948.38;10538577;28;20040;-77
2023/09/05 21:46:18;;;;;;;23.65;5.28;;;;;;;23.73;98.21;99952.97;10538498;28;20044;-77
2023/09/05 21:51:19;;;;;;;19.75;5.07;;;;;;;23.67;98.37;99950.19;10539255;28;20065;-78
2023/09/05 21:56:20;;;;;;;18.20;5.20;;;;;;;23.43;98.56;99922.69;10538463;28;20093;-77
2023/09/05 22:01:20;;;;;;;17.25;5.07;;;;;;;23.31;98.32;99905.84;10538907;28;20134;-77
2023/09/05 22:06:22;;;;;;;22.40;4.95;;;;;;;23.13;98.70;99882.69;10519607;28;20055;-78
2023/09/05 22:11:23;;;;;;;20.08;4.32;;;;;;;23.16;99.32;99871.34;10519673;28;20138;-78
2023/09/05 22:16:25;;;;;;;34.35;5.15;;;;;;;23.21;99.64;99886.78;10538477;28;20040;-77
2023/09/05 22:21:26;;;;;;;22.00;4.53;;;;;;;23.10;100.00;99879.72;10538089;28;20081;-77
2023/09/05 22:26:26;;;;;;;15.00;4.78;;;;;;;23.29;100.00;99929.66;10537045;28;20123;-77
2023/09/05 22:31:27;;;;;;;20.60;4.65;;;;;;;23.37;100.00;99955.47;10537721;28;20044;-77
2023/09/05 22:36:29;;;;;;;15.43;4.22;;;;;;;23.37;100.00;99958.19;10549534;28;20043;-77
2023/09/05 22:41:29;;;;;;;16.08;4.63;;;;;;;22.93;100.00;99894.19;10551209;28;20083;-77
2023/09/05 22:46:30;;;;;;;15.38;4.13;;;;;;;22.80;100.00;99856.72;10550578;28;20044;-76
2023/09/05 22:51:31;;;;;;;13.00;4.07;;;;;;;23.51;100.00;99969.34;10550792;28;20028;-77
2023/09/05 22:56:32;;;;;;;23.73;4.45;;;;;;;22.72;100.00;99846.38;10533069;28;20166;-76
2023/09/05 23:01:33;;;;;;;11.15;4.45;;;;;;;22.66;100.00;99856.34;10551674;28;20040;-77